Time;durP1;ratioP1;P1;durP2;ratioP2;P2;SDS_P1;SDS_P2;PMS_P1;PMS_P2;Temp;Humidity;BMP_temperature;BMP_pressure;BME280_temperature;BME280_humidity;BME280_pressure;Samples;Min_cycle;Max_cycle;Signal;HPM_P1;HPM_P2
2022/08/03 00:00:44;;;;;;;18.80;16.90;;;;;;;16.49;92.79;96970.66;108255;1270;25263;-85
2022/08/03 00:03:16;;;;;;;18.80;17.10;;;;;;;16.48;92.82;96971.27;108263;1268;24230;-85
2022/08/03 00:05:47;;;;;;;19.30;17.60;;;;;;;16.51;92.60;96969.32;108283;1270;22526;-85
2022/08/03 00:08:18;;;;;;;19.30;17.50;;;;;;;16.55;92.47;96973.98;108201;1270;27684;-84
2022/08/03 00:10:50;;;;;;;19.60;17.80;;;;;;;16.60;92.21;96973.45;108285;1270;22548;-84
2022/08/03 00:13:21;;;;;;;18.80;17.10;;;;;;;16.65;92.17;96972.39;108219;1270;23158;-84
2022/08/03 00:15:52;;;;;;;19.80;18.10;;;;;;;16.67;92.00;96973.88;108263;1270;23734;-84
2022/08/03 00:18:24;;;;;;;18.00;16.50;;;;;;;16.70;91.90;96976.92;108210;1270;26675;-84
2022/08/03 00:20:55;;;;;;;19.40;17.40;;;;;;;16.71;91.58;96978.98;108270;1270;22552;-84
2022/08/03 00:23:27;;;;;;;19.20;17.50;;;;;;;16.71;91.58;96978.28;108248;1268;23420;-85
2022/08/03 00:25:58;;;;;;;20.50;18.60;;;;;;;16.72;91.74;96979.48;108298;1270;22543;-85
2022/08/03 00:28:30;;;;;;;19.40;17.60;;;;;;;16.71;91.96;96978.06;108179;1269;27348;-83
2022/08/03 00:31:01;;;;;;;19.50;17.70;;;;;;;16.74;91.98;96980.77;108231;1270;22905;-84
2022/08/03 00:33:32;;;;;;;18.70;17.00;;;;;;;16.75;91.86;96979.95;108282;1270;22570;-84
2022/08/03 00:36:03;;;;;;;19.40;17.60;;;;;;;16.77;91.89;96982.33;108256;1270;23960;-84
2022/08/03 00:38:34;;;;;;;19.80;18.00;;;;;;;16.75;91.66;96981.45;108225;1270;31583;-84
2022/08/03 00:41:06;;;;;;;19.40;17.80;;;;;;;16.69;91.35;96980.26;108370;1270;22693;-84
2022/08/03 00:43:37;;;;;;;17.80;16.20;;;;;;;16.68;91.48;96981.73;108278;1270;22655;-85
2022/08/03 00:46:09;;;;;;;19.20;17.50;;;;;;;16.67;91.46;96981.08;108362;1270;22701;-85
2022/08/03 00:48:40;;;;;;;18.70;17.00;;;;;;;16.62;91.42;96981.75;107980;1270;303739;-85
2022/08/03 00:51:12;;;;;;;17.60;16.00;;;;;;;16.57;91.23;96983.10;108309;1270;22557;-85
2022/08/03 00:53:44;;;;;;;18.50;16.80;;;;;;;16.49;91.09;96982.02;108328;1268;22529;-85
2022/08/03 00:56:17;;;;;;;20.00;18.10;;;;;;;16.37;91.19;96980.95;108264;1270;25172;-85
2022/08/03 00:58:48;;;;;;;20.20;18.40;;;;;;;16.29;91.41;96977.23;108183;1270;32606;-86
2022/08/03 01:01:19;;;;;;;19.90;18.20;;;;;;;16.25;91.76;96977.77;108308;1270;22561;-85
2022/08/03 01:03:51;;;;;;;20.60;18.80;;;;;;;16.22;92.06;96975.92;108259;1270;22551;-86
2022/08/03 01:06:30;;;;;;;19.70;18.00;;;;;;;16.27;92.40;96975.16;108328;1270;22892;-86
2022/08/03 01:09:09;;;;;;;19.70;18.00;;;;;;;16.28;92.65;96974.11;108268;1270;25761;-86
2022/08/03 01:11:51;;;;;;;20.00;18.30;;;;;;;16.30;92.88;96971.70;108256;1270;22546;-84
2022/08/03 01:14:27;;;;;;;21.10;19.00;;;;;;;16.34;92.86;96971.55;108282;1270;22559;-84
2022/08/03 01:17:05;;;;;;;18.70;17.10;;;;;;;16.40;92.85;96972.21;108165;1270;56224;-85
2022/08/03 01:19:47;;;;;;;18.30;16.70;;;;;;;16.43;93.02;96973.20;108268;1270;22563;-84
2022/08/03 01:22:49;;;;;;;19.60;17.80;;;;;;;16.48;93.34;96971.04;108283;1270;22620;-85
2022/08/03 01:25:36;;;;;;;19.60;18.00;;;;;;;16.54;93.46;96975.53;108163;1270;22644;-84
2022/08/03 01:28:29;;;;;;;20.70;18.80;;;;;;;16.58;93.61;96972.86;108041;1271;79661;-84
2022/08/03 01:31:05;;;;;;;19.10;17.40;;;;;;;16.62;93.55;96974.36;108315;1270;22548;-84
2022/08/03 01:33:43;;;;;;;19.50;17.80;;;;;;;16.63;93.51;96976.59;108355;1270;25373;-84
2022/08/03 01:36:18;;;;;;;18.50;16.90;;;;;;;16.65;93.46;96978.86;108346;1270;22519;-84
2022/08/03 01:38:53;;;;;;;18.10;16.60;;;;;;;16.66;93.30;96981.55;108302;1270;25679;-85
2022/08/03 01:41:32;;;;;;;18.90;17.40;;;;;;;16.67;93.03;96975.50;108262;1270;22546;-84
2022/08/03 01:44:08;;;;;;;18.50;16.70;;;;;;;16.67;92.74;96980.58;108305;1270;22597;-84
2022/08/03 01:46:43;;;;;;;18.60;16.70;;;;;;;16.65;92.58;96975.37;108367;1270;22527;-84
2022/08/03 01:49:18;;;;;;;18.30;16.70;;;;;;;16.65;92.44;96976.44;108305;1269;22880;-84
2022/08/03 01:51:50;;;;;;;18.30;16.80;;;;;;;16.66;92.42;96968.45;108186;1270;24207;-84
2022/08/03 01:54:24;;;;;;;17.80;16.30;;;;;;;16.66;92.41;96968.30;108310;1270;25417;-84
2022/08/03 01:56:57;;;;;;;17.50;16.00;;;;;;;16.61;92.17;96970.11;108171;1268;133543;-84
2022/08/03 01:59:30;;;;;;;18.70;17.10;;;;;;;16.58;91.87;96964.25;108297;1270;22530;-84
2022/08/03 02:02:03;;;;;;;17.70;16.10;;;;;;;16.48;91.77;96968.64;108265;1270;22575;-84
2022/08/03 02:04:36;;;;;;;18.30;16.60;;;;;;;16.47;91.99;96962.83;108385;1270;23884;-86
2022/08/03 02:07:11;;;;;;;18.90;17.20;;;;;;;16.46;92.13;96957.70;108202;1270;40664;-85
2022/08/03 02:09:45;;;;;;;18.40;16.80;;;;;;;16.44;92.18;96956.11;108307;1268;22563;-83
2022/08/03 02:12:18;;;;;;;18.10;16.40;;;;;;;16.40;92.15;96952.40;108307;1270;25281;-85
2022/08/03 02:14:51;;;;;;;17.70;16.20;;;;;;;16.34;92.05;96955.02;108249;1270;22596;-84
2022/08/03 02:17:25;;;;;;;18.00;15.80;;;;;;;16.26;92.22;96954.41;108244;1270;28093;-85
2022/08/03 02:19:59;;;;;;;18.70;16.60;;;;;;;16.23;92.62;96953.70;108309;1270;22668;-85
2022/08/03 02:22:33;;;;;;;18.50;16.80;;;;;;;16.23;93.29;96952.41;108265;1268;23900;-85
2022/08/03 02:25:04;;;;;;;19.50;17.60;;;;;;;16.27;93.57;96953.91;108309;1270;22523;-84
2022/08/03 02:27:38;;;;;;;17.30;15.80;;;;;;;16.31;93.87;96954.56;108194;1270;43059;-84
2022/08/03 02:30:13;;;;;;;18.50;16.90;;;;;;;16.35;93.99;96958.22;108343;1270;23256;-84
2022/08/03 02:32:49;;;;;;;18.40;16.80;;;;;;;16.37;93.82;96958.48;108299;1270;23787;-85
2022/08/03 02:35:23;;;;;;;18.50;16.90;;;;;;;16.37;93.57;96956.77;108299;1270;22846;-85
2022/08/03 02:37:59;;;;;;;18.40;16.60;;;;;;;16.29;93.35;96957.38;108060;1270;118849;-85
2022/08/03 02:40:33;;;;;;;17.50;15.80;;;;;;;16.23;93.26;96959.05;108295;1270;24345;-85
2022/08/03 02:43:09;;;;;;;18.10;16.50;;;;;;;16.23;93.24;96959.90;108283;1270;22953;-85
2022/08/03 02:45:45;;;;;;;17.80;16.10;;;;;;;16.20;92.96;96958.98;108251;1270;23890;-84
2022/08/03 02:48:22;;;;;;;18.10;16.40;;;;;;;16.17;92.73;96955.70;108221;1270;41630;-84
2022/08/03 02:50:55;;;;;;;16.60;15.10;;;;;;;16.14;92.65;96956.64;108306;1270;22592;-84
2022/08/03 02:53:27;;;;;;;15.20;13.90;;;;;;;16.15;92.50;96959.88;108265;1270;22556;-84
2022/08/03 02:55:59;;;;;;;17.50;15.90;;;;;;;16.14;92.36;96957.98;108338;1270;22589;-84
2022/08/03 02:58:31;;;;;;;17.30;15.80;;;;;;;16.15;92.57;96956.03;108214;1270;35101;-84
2022/08/03 03:01:03;;;;;;;17.40;15.80;;;;;;;16.11;92.62;96957.73;108275;1270;22579;-84
2022/08/03 03:03:35;;;;;;;16.80;15.30;;;;;;;16.07;92.49;96961.15;108241;1268;23150;-84
2022/08/03 03:06:08;;;;;;;16.30;14.80;;;;;;;15.98;92.57;96965.67;108307;1270;22610;-84
2022/08/03 03:08:39;;;;;;;15.10;13.60;;;;;;;15.89;92.97;96965.30;108082;1270;92989;-84
2022/08/03 03:11:13;;;;;;;14.70;13.40;;;;;;;15.86;93.25;96966.82;108266;1270;24438;-83
2022/08/03 03:13:46;;;;;;;15.00;13.40;;;;;;;15.82;93.17;96969.66;108289;1270;22570;-84
2022/08/03 03:16:18;;;;;;;14.80;13.30;;;;;;;15.74;93.34;96966.34;108257;1270;22540;-83
2022/08/03 03:18:50;;;;;;;15.90;14.40;;;;;;;15.71;93.80;96964.81;108187;1270;26407;-84
2022/08/03 03:21:24;;;;;;;17.10;15.60;;;;;;;15.78;94.52;96966.23;108256;1270;22550;-84
2022/08/03 03:23:56;;;;;;;17.70;16.00;;;;;;;15.87;94.61;96969.80;108250;1270;22590;-84
2022/08/03 03:26:28;;;;;;;18.20;16.50;;;;;;;15.92;94.43;96969.04;108298;1270;25402;-83
2022/08/03 03:28:59;;;;;;;16.80;15.40;;;;;;;15.92;94.17;96967.98;108199;1269;26759;-84
2022/08/03 03:31:31;;;;;;;17.00;15.40;;;;;;;15.89;94.06;96969.58;108250;1270;22646;-84
2022/08/03 03:34:02;;;;;;;16.70;15.40;;;;;;;15.90;93.91;96968.91;108280;1270;22666;-84
2022/08/03 03:36:34;;;;;;;17.20;15.70;;;;;;;15.91;93.88;96969.91;108200;1268;22534;-83
2022/08/03 03:39:05;;;;;;;16.10;14.70;;;;;;;15.96;93.80;96974.82;108061;1270;114940;-83
2022/08/03 03:41:39;;;;;;;16.80;15.10;;;;;;;15.97;93.48;96972.81;108263;1270;22765;-83
2022/08/03 03:44:10;;;;;;;16.10;14.60;;;;;;;15.98;93.52;96973.64;108259;1270;22570;-83
2022/08/03 03:46:42;;;;;;;16.90;15.30;;;;;;;16.03;93.49;96971.13;108277;1270;22543;-83
2022/08/03 03:49:13;;;;;;;16.00;14.50;;;;;;;16.07;93.35;96973.36;108245;1270;23729;-83
2022/08/03 03:51:45;;;;;;;15.70;14.30;;;;;;;16.05;93.48;96970.93;108220;1269;22530;-83
2022/08/03 03:54:16;;;;;;;17.20;15.50;;;;;;;16.10;93.57;96967.44;108254;1270;22540;-83
2022/08/03 03:56:47;;;;;;;16.80;15.30;;;;;;;16.18;93.61;96969.94;108114;1270;90180;-82
2022/08/03 03:59:18;;;;;;;16.50;15.00;;;;;;;16.25;93.80;96974.02;108277;1270;22559;-83
2022/08/03 04:01:51;;;;;;;17.30;15.80;;;;;;;16.32;93.74;96974.49;108240;1270;25933;-83
2022/08/03 04:12:52;;;;;;;16.40;15.00;;;;;;;16.64;93.60;96990.02;108248;1270;22546;-84
2022/08/03 04:15:25;;;;;;;17.40;15.80;;;;;;;16.72;93.50;96990.03;108271;1270;22641;-85
2022/08/03 04:17:59;;;;;;;17.50;15.90;;;;;;;16.80;93.46;96988.13;108176;1270;29021;-84
2022/08/03 04:20:35;;;;;;;17.00;15.40;;;;;;;16.85;93.19;96989.52;108252;1270;24542;-85
2022/08/03 04:23:08;;;;;;;16.60;15.10;;;;;;;16.87;92.98;96991.23;108252;1270;22672;-85
2022/08/03 04:25:42;;;;;;;16.40;15.00;;;;;;;16.86;92.93;96990.89;108308;1270;22555;-85
2022/08/03 04:28:14;;;;;;;16.50;15.00;;;;;;;16.92;93.14;96992.34;108238;1270;30665;-84
2022/08/03 04:30:52;;;;;;;17.30;15.70;;;;;;;17.00;92.82;96993.24;108255;1270;23715;-84
2022/08/03 04:33:26;;;;;;;17.50;15.90;;;;;;;17.01;92.54;96998.16;108277;1270;22594;-85
2022/08/03 04:36:01;;;;;;;17.50;15.90;;;;;;;17.08;92.70;96997.54;108235;1270;22544;-84
2022/08/03 04:38:36;;;;;;;18.50;16.90;;;;;;;17.16;92.53;96999.18;108177;1270;30695;-84
2022/08/03 04:41:09;;;;;;;17.80;16.00;;;;;;;17.20;92.52;97004.00;108302;1270;22708;-84
2022/08/03 04:43:40;;;;;;;17.00;15.50;;;;;;;17.21;92.35;97005.11;108287;1270;22572;-84
2022/08/03 04:46:13;;;;;;;18.60;16.90;;;;;;;17.28;92.50;97006.35;108273;1270;23782;-84
2022/08/03 04:48:45;;;;;;;19.00;17.10;;;;;;;17.48;92.54;97008.35;108185;1270;68912;-83
2022/08/03 04:51:16;;;;;;;17.90;16.20;;;;;;;17.77;92.31;97007.85;108279;1270;22637;-83
2022/08/03 04:53:48;;;;;;;17.20;15.50;;;;;;;18.35;92.61;97013.17;108275;1270;22560;-83
2022/08/03 04:56:19;;;;;;;16.40;15.00;;;;;;;19.95;93.77;97010.81;108297;1270;25392;-84
2022/08/03 04:58:50;;;;;;;13.20;11.90;;;;;;;21.89;90.87;97009.25;108180;1270;27827;-84
2022/08/03 05:01:22;;;;;;;13.40;12.10;;;;;;;23.54;84.00;97010.27;108259;1270;22555;-84
2022/08/03 05:03:53;;;;;;;12.70;11.60;;;;;;;24.82;79.21;97007.80;108240;1270;22577;-84
2022/08/03 05:06:25;;;;;;;12.30;11.20;;;;;;;25.41;73.30;97007.23;108258;1270;22649;-84
2022/08/03 05:08:56;;;;;;;11.30;10.30;;;;;;;25.62;70.24;97006.93;108255;1270;27387;-84
2022/08/03 05:11:34;;;;;;;11.20;10.30;;;;;;;26.44;68.82;97006.19;108293;1270;22553;-84
2022/08/03 05:14:09;;;;;;;11.10;10.10;;;;;;;26.57;64.30;97002.15;108295;1270;22542;-85
2022/08/03 05:16:43;;;;;;;11.50;10.40;;;;;;;25.59;63.99;97003.23;108211;1270;32778;-83
2022/08/03 05:19:15;;;;;;;10.20;9.20;;;;;;;25.62;63.67;97003.50;108340;1270;24228;-84
2022/08/03 05:21:46;;;;;;;12.00;10.70;;;;;;;25.32;62.70;97006.55;108267;1270;22681;-84
2022/08/03 05:24:20;;;;;;;11.80;10.40;;;;;;;24.61;63.89;97007.25;108288;1270;24953;-84
2022/08/03 05:26:51;;;;;;;11.50;10.50;;;;;;;25.20;64.99;97007.64;108288;1270;29389;-84
2022/08/03 05:29:23;;;;;;;10.70;9.70;;;;;;;27.12;65.43;97005.66;108264;1270;23913;-84
2022/08/03 05:31:54;;;;;;;10.70;9.80;;;;;;;28.45;60.38;97004.28;108269;1270;23919;-84
2022/08/03 05:34:28;;;;;;;10.80;9.70;;;;;;;27.59;57.71;97007.55;108300;1270;23849;-84
2022/08/03 05:36:59;;;;;;;10.70;9.60;;;;;;;26.32;58.29;97008.94;108095;1270;98269;-84
2022/08/03 05:39:30;;;;;;;10.30;9.50;;;;;;;26.03;59.59;97016.27;108325;1270;22870;-84
2022/08/03 05:42:02;;;;;;;10.10;9.20;;;;;;;27.08;59.80;97015.78;108327;1269;22562;-84
2022/08/03 05:44:37;;;;;;;9.40;8.60;;;;;;;28.17;56.78;97019.35;108272;1270;22630;-84
2022/08/03 05:47:09;;;;;;;8.70;7.90;;;;;;;29.43;56.16;97016.95;108230;1270;27881;-84
2022/08/03 05:49:40;;;;;;;8.40;7.70;;;;;;;30.57;53.10;97021.44;108257;1270;22527;-84
2022/08/03 05:52:11;;;;;;;9.10;8.10;;;;;;;31.10;51.63;97021.98;108284;1270;22688;-83
2022/08/03 05:54:43;;;;;;;8.80;8.00;;;;;;;32.15;50.52;97020.38;108260;1270;24298;-83
2022/08/03 05:57:14;;;;;;;7.40;6.80;;;;;;;32.46;48.81;97020.96;108225;1270;29972;-84
2022/08/03 05:59:50;;;;;;;7.40;6.80;;;;;;;33.34;48.31;97023.62;108282;1270;24403;-84
2022/08/03 06:02:21;;;;;;;7.60;7.00;;;;;;;34.38;46.37;97018.98;108284;1270;25255;-84
2022/08/03 06:04:53;;;;;;;7.00;6.40;;;;;;;35.04;44.84;97022.52;108259;1270;22516;-84
2022/08/03 06:07:24;;;;;;;6.60;6.00;;;;;;;35.93;44.37;97024.24;108214;1270;32916;-84
2022/08/03 06:09:55;;;;;;;7.60;6.30;;;;;;;36.92;41.86;97029.15;108271;1270;23262;-84
2022/08/03 06:12:30;;;;;;;6.20;5.70;;;;;;;37.79;41.06;97030.58;108263;1270;22552;-84
2022/08/03 06:15:01;;;;;;;7.10;6.30;;;;;;;38.32;39.33;97027.44;108272;1270;25928;-81
2022/08/03 06:17:33;;;;;;;6.60;6.00;;;;;;;38.27;37.94;97026.95;108134;1270;39352;-80
2022/08/03 06:20:05;;;;;;;6.50;5.90;;;;;;;38.62;37.96;97023.65;108232;1270;22524;-80
2022/08/03 06:22:36;;;;;;;6.50;5.90;;;;;;;39.40;37.09;97023.49;108308;1270;22541;-80
2022/08/03 06:25:10;;;;;;;6.50;5.80;;;;;;;39.84;36.38;97021.90;108270;1270;22554;-80
2022/08/03 06:27:41;;;;;;;6.20;5.60;;;;;;;39.64;34.72;97019.53;108184;1270;41078;-80
2022/08/03 06:30:15;;;;;;;6.40;5.40;;;;;;;39.85;35.31;97021.06;108232;1270;22749;-80
2022/08/03 06:32:47;;;;;;;7.20;5.80;;;;;;;40.62;34.94;97024.39;108265;1270;22542;-80
2022/08/03 06:35:18;;;;;;;5.60;5.10;;;;;;;41.38;33.55;97026.44;108232;1270;22753;-80
2022/08/03 06:37:51;;;;;;;6.90;5.60;;;;;;;41.64;32.63;97024.73;108138;1270;30150;-80
2022/08/03 06:40:28;;;;;;;5.90;5.20;;;;;;;42.25;31.54;97024.08;108249;1270;25368;-80
2022/08/03 06:43:01;;;;;;;7.10;5.00;;;;;;;42.35;31.19;97024.27;108234;1270;23752;-80
2022/08/03 06:45:33;;;;;;;7.20;5.00;;;;;;;43.21;30.75;97023.77;108145;1271;22537;-80
2022/08/03 06:48:05;;;;;;;5.50;5.00;;;;;;;42.90;29.33;97025.53;108239;1270;29292;-80
2022/08/03 06:50:38;;;;;;;5.70;5.20;;;;;;;39.62;29.43;97027.59;108324;1270;22546;-79
2022/08/03 06:53:10;;;;;;;6.00;5.40;;;;;;;36.93;31.84;97026.23;108410;1270;22537;-80
2022/08/03 06:55:41;;;;;;;6.30;5.70;;;;;;;35.90;33.40;97022.36;108207;1270;24167;-80
2022/08/03 06:58:12;;;;;;;7.00;6.30;;;;;;;36.16;34.91;97026.58;108359;1270;26104;-79
2022/08/03 07:00:43;;;;;;;6.50;5.90;;;;;;;37.56;33.55;97029.00;108370;1270;22558;-80
2022/08/03 07:03:41;;;;;;;6.00;5.40;;;;;;;37.90;32.95;97029.34;108384;1270;22521;-81
2022/08/03 07:06:12;;;;;;;5.90;5.30;;;;;;;39.04;32.78;97029.07;108294;1270;22528;-81
2022/08/03 07:08:43;;;;;;;5.10;4.70;;;;;;;40.23;31.85;97031.39;108298;1270;31783;-80
2022/08/03 07:11:15;;;;;;;5.50;5.00;;;;;;;41.40;30.62;97035.52;108426;1270;22539;-80
2022/08/03 07:13:46;;;;;;;5.80;5.00;;;;;;;41.70;28.45;97035.20;108403;1269;23312;-79
2022/08/03 07:16:17;;;;;;;6.10;5.30;;;;;;;40.55;28.69;97032.88;108543;1270;22653;-80
2022/08/03 07:18:48;;;;;;;5.50;4.80;;;;;;;39.79;28.84;97032.29;108331;1270;25391;-79
2022/08/03 07:21:19;;;;;;;5.60;5.10;;;;;;;40.89;29.41;97037.12;108614;1270;22556;-79
2022/08/03 07:23:50;;;;;;;6.60;4.80;;;;;;;41.99;28.30;97038.39;108484;1270;22578;-79
2022/08/03 07:26:21;;;;;;;5.20;4.70;;;;;;;42.13;27.20;97033.63;108353;1270;22560;-79
2022/08/03 07:28:52;;;;;;;5.40;4.90;;;;;;;40.80;26.21;97036.80;108319;1270;29725;-77
2022/08/03 07:31:24;;;;;;;5.60;4.70;;;;;;;40.63;28.08;97032.45;108235;1271;22532;-79
2022/08/03 07:33:55;;;;;;;5.40;4.40;;;;;;;41.42;27.72;97035.27;108408;1270;22668;-78
2022/08/03 07:36:26;;;;;;;5.00;4.50;;;;;;;41.02;26.34;97034.14;108324;1270;22541;-78
2022/08/03 07:38:58;;;;;;;7.40;4.70;;;;;;;40.70;27.15;97034.26;108180;1270;27579;-73
2022/08/03 07:41:30;;;;;;;4.90;4.40;;;;;;;41.58;27.66;97030.90;108274;1270;22844;-73
2022/08/03 07:44:04;;;;;;;4.80;4.10;;;;;;;43.12;27.89;97034.66;108337;1270;22565;-78
2022/08/03 07:46:36;;;;;;;3.90;3.60;;;;;;;45.03;26.56;97038.33;108505;1270;22546;-78
2022/08/03 07:49:09;;;;;;;5.50;4.30;;;;;;;45.38;24.84;97034.81;108332;1270;34077;-84
2022/08/03 07:51:40;;;;;;;5.00;3.80;;;;;;;44.92;25.48;97037.55;108444;1270;22575;-83
2022/08/03 07:54:15;;;;;;;4.60;3.90;;;;;;;45.72;24.89;97035.84;108477;1270;22556;-82
2022/08/03 07:56:46;;;;;;;5.50;4.30;;;;;;;46.45;23.92;97034.79;108353;1270;47490;-82
2022/08/03 07:59:17;;;;;;;4.10;3.80;;;;;;;45.98;22.92;97035.80;108465;1270;24056;-82
2022/08/03 08:01:51;;;;;;;4.00;3.60;;;;;;;45.24;23.06;97028.48;108530;1270;23579;-82
2022/08/03 08:04:23;;;;;;;4.60;3.70;;;;;;;44.47;23.19;97029.73;108413;1270;23205;-81
2022/08/03 08:06:55;;;;;;;5.30;4.40;;;;;;;43.11;22.63;97032.30;108338;1270;34698;-81
2022/08/03 08:09:27;;;;;;;5.50;3.80;;;;;;;41.72;24.75;97029.59;108244;1271;22537;-83
2022/08/03 08:11:58;;;;;;;4.40;4.00;;;;;;;41.99;24.94;97032.30;108234;1271;25297;-80
2022/08/03 08:14:29;;;;;;;6.10;3.90;;;;;;;41.29;25.53;97033.72;108311;1270;22591;-78
2022/08/03 08:17:01;;;;;;;4.60;3.50;;;;;;;42.07;25.81;97033.43;108214;1270;24881;-79
2022/08/03 08:19:32;;;;;;;4.40;3.90;;;;;;;42.60;24.80;97037.39;108288;1270;22551;-80
2022/08/03 08:22:05;;;;;;;5.20;3.60;;;;;;;42.70;24.56;97037.96;108362;1270;22526;-80
2022/08/03 08:24:36;;;;;;;4.00;3.50;;;;;;;42.48;24.60;97036.30;108303;1270;25477;-78
2022/08/03 08:27:10;;;;;;;4.70;3.40;;;;;;;42.94;25.22;97037.99;108230;1270;62349;-78
2022/08/03 08:29:42;;;;;;;3.70;3.30;;;;;;;43.87;23.10;97040.00;108414;1270;24232;-80
2022/08/03 08:32:14;;;;;;;3.80;3.50;;;;;;;43.82;23.59;97039.20;108382;1270;22618;-81
2022/08/03 08:34:46;;;;;;;4.80;4.40;;;;;;;43.58;22.25;97035.92;108385;1270;22611;-81
2022/08/03 08:37:17;;;;;;;4.50;4.10;;;;;;;42.92;24.45;97036.52;108312;1270;26476;-81
2022/08/03 08:39:49;;;;;;;5.30;4.50;;;;;;;44.29;24.30;97032.66;108372;1270;22555;-81
2022/08/03 08:42:20;;;;;;;4.40;3.90;;;;;;;44.10;22.06;97037.55;108319;1270;25909;-80
2022/08/03 08:44:52;;;;;;;4.70;4.20;;;;;;;41.40;22.94;97041.09;108320;1270;23405;-77
2022/08/03 08:47:26;;;;;;;4.40;4.00;;;;;;;39.93;24.48;97037.84;108280;1270;32548;-78
2022/08/03 08:49:59;;;;;;;4.80;4.30;;;;;;;39.79;24.99;97030.66;108331;1270;22638;-81
2022/08/03 08:52:31;;;;;;;5.80;4.40;;;;;;;40.02;25.08;97028.10;108371;1270;22529;-79
2022/08/03 08:55:08;;;;;;;5.60;4.40;;;;;;;40.54;25.25;97026.27;108324;1270;22671;-78
2022/08/03 08:57:47;;;;;;;5.40;4.70;;;;;;;41.26;25.04;97031.31;108308;1270;22843;-79
2022/08/03 09:00:20;;;;;;;5.20;4.40;;;;;;;42.06;24.07;97032.39;108361;1270;22565;-78
2022/08/03 09:02:52;;;;;;;6.30;4.70;;;;;;;42.16;24.05;97034.50;108326;1270;22537;-78
2022/08/03 09:05:24;;;;;;;4.40;4.00;;;;;;;41.28;24.96;97028.84;108362;1270;25392;-77
2022/08/03 09:07:55;;;;;;;4.80;4.30;;;;;;;42.06;26.22;97032.27;108262;1270;31454;-77
2022/08/03 09:10:27;;;;;;;5.10;4.70;;;;;;;43.57;25.75;97025.41;108402;1269;22676;-77
2022/08/03 09:12:59;;;;;;;6.10;5.00;;;;;;;44.28;24.06;97024.70;108275;1270;22584;-77
2022/08/03 09:15:32;;;;;;;7.70;4.70;;;;;;;44.26;23.84;97023.35;108340;1270;22593;-77
2022/08/03 09:18:04;;;;;;;5.20;4.70;;;;;;;44.06;24.01;97019.37;108275;1270;30221;-78
2022/08/03 09:20:36;;;;;;;5.10;4.70;;;;;;;43.80;23.68;97020.54;108321;1270;22557;-77
2022/08/03 09:23:09;;;;;;;4.80;4.40;;;;;;;42.97;24.01;97020.38;108353;1270;22581;-79
2022/08/03 09:25:42;;;;;;;5.40;4.70;;;;;;;39.80;24.23;97019.52;108350;1270;22590;-77
2022/08/03 09:28:14;;;;;;;5.30;4.80;;;;;;;36.23;27.71;97018.29;108252;1270;50642;-77
2022/08/03 09:31:01;;;;;;;5.60;5.10;;;;;;;34.13;30.44;97018.36;108386;1270;22562;-77
2022/08/03 09:33:33;;;;;;;5.80;5.30;;;;;;;32.23;32.62;97019.34;108378;1270;22528;-76
2022/08/03 09:36:07;;;;;;;6.30;5.70;;;;;;;31.33;34.73;97011.48;108365;1270;23629;-77
2022/08/03 09:38:38;;;;;;;6.10;5.50;;;;;;;31.39;35.00;97016.30;108280;1270;26952;-76
2022/08/03 09:41:19;;;;;;;7.30;5.90;;;;;;;31.49;35.59;97018.79;108409;1270;23190;-76
2022/08/03 09:43:55;;;;;;;6.90;5.50;;;;;;;30.82;36.73;97010.75;108340;1270;22709;-76
2022/08/03 09:46:30;;;;;;;6.10;5.60;;;;;;;30.61;37.13;97012.50;108333;1270;22738;-73
2022/08/03 09:49:14;;;;;;;7.40;6.20;;;;;;;30.14;36.94;97011.92;108295;1270;35251;-73
2022/08/03 09:51:46;;;;;;;6.60;5.90;;;;;;;29.28;38.68;97013.45;108314;1270;22557;-73
2022/08/03 09:54:28;;;;;;;6.60;5.60;;;;;;;28.56;39.60;97018.73;108259;1270;23254;-73
2022/08/03 09:57:02;;;;;;;6.60;6.00;;;;;;;27.88;40.84;97015.62;108257;1270;25016;-74
2022/08/03 09:59:35;;;;;;;7.80;6.50;;;;;;;27.37;42.16;97018.15;108343;1270;22694;-73
2022/08/03 10:02:20;;;;;;;8.00;7.20;;;;;;;27.17;42.88;97019.95;108215;1271;23837;-73
2022/08/03 10:04:52;;;;;;;7.30;6.60;;;;;;;26.86;44.40;97012.16;108327;1270;22544;-74
2022/08/03 10:07:24;;;;;;;7.50;6.80;;;;;;;27.00;44.90;97015.12;108115;1271;24729;-73
2022/08/03 10:10:02;;;;;;;8.30;7.40;;;;;;;26.89;44.30;97018.26;108347;1271;22550;-73
2022/08/03 10:12:34;;;;;;;7.50;6.80;;;;;;;26.65;44.35;97019.66;108382;1271;22677;-74
2022/08/03 10:15:08;;;;;;;8.80;7.10;;;;;;;26.57;44.97;97017.39;108298;1271;22702;-74
2022/08/03 10:17:41;;;;;;;8.40;7.10;;;;;;;26.65;45.30;97018.96;108314;1271;28773;-74
2022/08/03 10:20:14;;;;;;;9.50;7.20;;;;;;;26.58;45.61;97019.73;108265;1271;22581;-74
2022/08/03 10:22:45;;;;;;;7.90;7.10;;;;;;;26.36;45.51;97018.40;108347;1271;22610;-74
2022/08/03 10:25:18;;;;;;;8.10;7.20;;;;;;;26.24;46.60;97015.60;108286;1271;25244;-74
2022/08/03 10:27:53;;;;;;;8.10;7.40;;;;;;;26.53;47.92;97017.90;108171;1271;26861;-75
2022/08/03 10:30:27;;;;;;;8.40;7.30;;;;;;;26.79;48.17;97017.23;108281;1270;22666;-74
2022/08/03 10:33:05;;;;;;;7.80;7.10;;;;;;;27.31;47.08;97022.14;108252;1271;22569;-74
2022/08/03 10:35:40;;;;;;;7.50;6.50;;;;;;;27.52;46.85;97019.83;108343;1271;22584;-74
2022/08/03 10:38:13;;;;;;;7.50;6.80;;;;;;;27.79;45.84;97016.36;108124;1271;34175;-74
2022/08/03 10:40:46;;;;;;;7.50;6.60;;;;;;;27.63;45.16;97019.05;108393;1270;22521;-74
2022/08/03 10:43:23;;;;;;;7.80;7.10;;;;;;;27.48;46.13;97017.29;108426;1271;22519;-74
2022/08/03 10:45:56;;;;;;;7.70;6.50;;;;;;;27.82;46.65;97012.71;108380;1271;22561;-74
2022/08/03 10:48:28;;;;;;;6.70;6.00;;;;;;;28.20;45.98;97017.58;108285;1271;27286;-74
2022/08/03 10:51:00;;;;;;;7.00;6.40;;;;;;;28.38;45.01;97011.27;108329;1271;24230;-76
2022/08/03 10:53:39;;;;;;;7.00;6.10;;;;;;;28.77;45.47;97005.05;108300;1271;25008;-76
2022/08/03 11:00:03;;;;;;;7.30;6.50;;;;;;;29.56;43.46;96999.80;108376;1270;24511;-75
2022/08/03 11:03:08;;;;;;;7.30;6.00;;;;;;;29.42;43.59;96992.47;108321;1271;22662;-76
2022/08/03 11:05:42;;;;;;;7.00;6.40;;;;;;;28.58;42.56;97000.16;108329;1271;22524;-75
2022/08/03 11:08:33;;;;;;;7.20;6.50;;;;;;;27.82;44.34;96996.69;108234;1271;40655;-76
2022/08/03 11:11:32;;;;;;;6.50;6.00;;;;;;;27.90;45.51;97000.92;108214;1271;24232;-75
2022/08/03 11:14:10;;;;;;;6.70;6.10;;;;;;;28.43;45.52;96996.17;108290;1270;22528;-75
2022/08/03 11:16:44;;;;;;;7.10;6.50;;;;;;;28.77;45.60;96992.19;108294;1270;22552;-75
2022/08/03 11:19:16;;;;;;;7.00;6.30;;;;;;;28.99;44.46;96990.52;108344;1271;22634;-75
2022/08/03 11:22:07;;;;;;;7.70;6.80;;;;;;;29.08;43.91;96988.65;108338;1271;22575;-75
2022/08/03 11:24:55;;;;;;;;;;;;;;;29.23;44.86;96986.39;108241;1271;23885;-75
2022/08/03 11:27:27;;;;;;;7.80;6.00;;;;;;;29.32;44.50;96986.62;108216;1271;33216;-76
2022/08/03 11:30:00;;;;;;;6.90;6.20;;;;;;;29.42;44.40;96986.36;108224;1270;22827;-76
2022/08/03 11:32:57;;;;;;;8.40;6.10;;;;;;;29.25;42.22;96982.41;108279;1271;22645;-76
2022/08/03 11:35:30;;;;;;;7.50;6.60;;;;;;;28.40;43.23;96977.13;108252;1271;23402;-76
2022/08/03 11:38:09;;;;;;;7.40;6.70;;;;;;;28.11;44.84;96980.37;108186;1271;26096;-76
2022/08/03 11:40:46;;;;;;;6.80;6.20;;;;;;;28.29;45.09;96978.90;108257;1271;22543;-76
2022/08/03 11:43:47;;;;;;;8.00;6.70;;;;;;;28.03;43.65;96976.76;108293;1271;23720;-76
2022/08/03 11:46:20;;;;;;;7.00;6.20;;;;;;;27.81;44.94;96972.21;108131;1271;22566;-77
2022/08/03 11:48:57;;;;;;;7.10;6.40;;;;;;;27.96;45.07;96966.92;108178;1270;37968;-75
2022/08/03 11:51:30;;;;;;;7.60;6.70;;;;;;;27.86;44.69;96964.70;108256;1271;23022;-75
2022/08/03 11:54:03;;;;;;;6.80;6.00;;;;;;;27.66;45.82;96962.89;108246;1271;23216;-75
2022/08/03 11:56:47;;;;;;;6.70;6.10;;;;;;;27.92;46.69;96959.89;108282;1271;24313;-75
2022/08/03 11:59:31;;;;;;;6.90;6.30;;;;;;;28.30;45.25;96960.36;108263;1271;22470;-76